createdAt,value
2023-05-20T00:00:09.573Z,78.10
2023-05-20T00:02:38.269Z,78.10
2023-05-20T00:05:07.870Z,78.20
2023-05-20T00:07:36.457Z,78.20
2023-05-20T00:10:05.235Z,78.30
2023-05-20T00:12:35.056Z,78.60
2023-05-20T00:15:05.603Z,78.60
2023-05-20T00:17:34.268Z,78.60
2023-05-20T00:20:03.405Z,78.60
2023-05-20T00:22:32.068Z,78.60
2023-05-20T00:25:00.823Z,78.70
2023-05-20T00:27:29.338Z,78.80
2023-05-20T00:29:57.997Z,79.70
2023-05-20T00:32:28.056Z,79.00
2023-05-20T00:35:00.171Z,79.10
2023-05-20T00:37:29.076Z,79.20
2023-05-20T00:39:57.694Z,79.20
2023-05-20T00:42:27.907Z,79.30
2023-05-20T00:44:57.374Z,79.50
2023-05-20T00:47:31.614Z,79.60
2023-05-20T00:50:00.901Z,79.50
2023-05-20T00:52:32.388Z,79.40
2023-05-20T00:55:01.801Z,79.60
2023-05-20T00:57:30.837Z,79.70
2023-05-20T00:59:59.718Z,79.80
2023-05-20T01:02:30.693Z,80.10
2023-05-20T01:04:59.523Z,80.00
2023-05-20T01:07:28.248Z,80.00
2023-05-20T01:09:56.918Z,79.90
2023-05-20T01:12:29.694Z,80.00
2023-05-20T01:15:05.195Z,80.40
2023-05-20T01:17:38.671Z,80.40
2023-05-20T01:20:10.790Z,80.40
2023-05-20T01:22:47.882Z,80.30
2023-05-20T01:25:16.484Z,80.50
2023-05-20T01:27:49.020Z,80.50
2023-05-20T01:30:18.056Z,80.60
2023-05-20T01:32:53.536Z,80.60
2023-05-20T01:35:23.576Z,80.70
2023-05-20T01:37:54.747Z,80.80
2023-05-20T01:40:25.595Z,80.90
2023-05-20T01:42:55.918Z,80.90
2023-05-20T01:45:25.635Z,81.00
2023-05-20T01:47:54.556Z,81.10
2023-05-20T01:50:23.354Z,81.20
2023-05-20T01:52:53.399Z,81.20
2023-05-20T01:55:22.064Z,81.50
2023-05-20T01:57:50.669Z,81.40
2023-05-20T02:00:19.309Z,81.40
2023-05-20T02:02:48.169Z,81.50
2023-05-20T02:05:17.639Z,81.50
2023-05-20T02:07:46.257Z,81.60
2023-05-20T02:10:16.624Z,81.60
2023-05-20T02:12:47.808Z,81.70
2023-05-20T02:15:16.700Z,81.80
2023-05-20T02:17:45.361Z,81.70
2023-05-20T02:20:16.345Z,81.90
2023-05-20T02:22:44.976Z,81.90
2023-05-20T02:25:13.765Z,81.90
2023-05-20T02:27:43.714Z,82.10
2023-05-20T02:30:12.765Z,82.10
2023-05-20T02:32:41.455Z,82.20
2023-05-20T02:35:10.231Z,82.20
2023-05-20T02:37:39.512Z,82.30
2023-05-20T02:40:10.355Z,82.50
2023-05-20T02:42:42.367Z,82.50
2023-05-20T02:45:12.561Z,82.40
2023-05-20T02:47:41.240Z,82.50
2023-05-20T02:50:10.267Z,82.60
2023-05-20T02:52:39.991Z,82.70
2023-05-20T02:55:09.723Z,82.70
2023-05-20T02:57:39.951Z,82.80
2023-05-20T03:00:13.699Z,82.80
2023-05-20T03:02:42.358Z,82.90
2023-05-20T03:05:12.336Z,83.00
2023-05-20T03:07:41.134Z,83.00
2023-05-20T03:10:10.703Z,83.20
2023-05-20T03:12:41.074Z,83.20
2023-05-20T03:15:13.342Z,83.20
2023-05-20T03:17:41.949Z,83.30
2023-05-20T03:20:12.801Z,83.40
2023-05-20T03:22:42.736Z,83.50
2023-05-20T03:25:11.734Z,83.60
2023-05-20T03:27:40.336Z,83.70
2023-05-20T03:30:10.337Z,83.80
2023-05-20T03:32:40.436Z,83.90
2023-05-20T03:35:10.028Z,83.90
2023-05-20T03:37:39.771Z,84.00
2023-05-20T03:40:10.873Z,84.10
2023-05-20T03:42:41.180Z,84.20
2023-05-20T03:45:11.474Z,84.30
2023-05-20T03:47:50.376Z,84.40
2023-05-20T03:50:19.973Z,84.40
2023-05-20T03:52:48.608Z,84.30
2023-05-20T03:55:20.597Z,84.50
2023-05-20T03:57:49.763Z,84.60
2023-05-20T04:00:18.912Z,84.70
2023-05-20T04:02:49.235Z,84.80
2023-05-20T04:05:20.636Z,85.00
2023-05-20T04:07:49.976Z,85.00
2023-05-20T04:10:21.476Z,85.20
2023-05-20T04:12:50.439Z,85.30
2023-05-20T04:15:19.588Z,85.40
2023-05-20T04:17:55.897Z,85.60
2023-05-20T04:20:25.209Z,85.70
2023-05-20T04:22:56.952Z,86.00
2023-05-20T04:25:27.306Z,86.10
2023-05-20T04:27:57.592Z,86.30
2023-05-20T04:30:26.634Z,86.40
2023-05-20T04:32:57.840Z,86.80
2023-05-20T04:35:26.973Z,86.90
2023-05-20T04:37:58.922Z,87.00
2023-05-20T04:40:27.526Z,87.20
2023-05-20T04:42:58.523Z,87.40
2023-05-20T04:45:27.731Z,87.40
2023-05-20T04:47:58.128Z,87.60
2023-05-20T04:50:27.331Z,87.70
2023-05-20T04:52:55.939Z,88.00
2023-05-20T04:55:25.918Z,88.20
2023-05-20T04:57:54.892Z,88.20
2023-05-20T05:00:23.597Z,88.40
2023-05-20T05:02:52.269Z,88.50
2023-05-20T05:05:22.717Z,88.80
2023-05-20T05:07:51.366Z,89.10
2023-05-20T05:10:20.223Z,89.10
2023-05-20T05:12:48.801Z,89.40
2023-05-20T05:15:18.287Z,89.50
2023-05-20T05:17:47.300Z,89.70
2023-05-20T05:20:17.167Z,90.00
2023-05-20T05:22:47.447Z,90.10
2023-05-20T05:25:16.039Z,90.20
2023-05-20T05:27:45.241Z,90.30
2023-05-20T05:30:14.007Z,90.40
2023-05-20T05:32:42.684Z,90.50
2023-05-20T05:35:11.743Z,90.70
2023-05-20T05:37:40.324Z,90.70
2023-05-20T05:40:11.496Z,90.80
2023-05-20T05:42:40.493Z,90.90
2023-05-20T05:45:11.759Z,91.10
2023-05-20T05:47:40.579Z,91.20
2023-05-20T05:50:10.121Z,91.40
2023-05-20T05:52:39.351Z,91.80
2023-05-20T05:55:12.828Z,92.80
2023-05-20T05:57:41.638Z,94.10
2023-05-20T06:00:15.121Z,95.60
2023-05-20T06:02:49.558Z,97.60
2023-05-20T06:05:32.525Z,99.70
2023-05-20T06:08:01.274Z,99.90
2023-05-20T06:10:31.268Z,99.90
2023-05-20T06:12:59.971Z,99.90
2023-05-20T06:15:29.417Z,99.90
2023-05-20T06:17:58.601Z,99.90
2023-05-20T06:20:28.116Z,99.90
2023-05-20T06:22:56.854Z,99.90
2023-05-20T06:25:31.939Z,99.90
2023-05-20T06:28:00.715Z,99.90
2023-05-20T06:30:29.591Z,99.90
2023-05-20T06:32:58.467Z,99.90
2023-05-20T06:35:27.895Z,99.90
2023-05-20T06:37:56.829Z,99.90
2023-05-20T06:40:27.298Z,99.70
2023-05-20T06:42:57.507Z,99.40
2023-05-20T06:45:46.488Z,99.40
2023-05-20T06:48:35.795Z,99.90
2023-05-20T06:51:04.883Z,99.90
2023-05-20T06:53:33.808Z,99.90
2023-05-20T06:56:02.694Z,99.90
2023-05-20T06:58:32.672Z,99.90
2023-05-20T07:01:01.565Z,99.90
2023-05-20T07:03:30.310Z,99.90
2023-05-20T07:05:58.920Z,99.90
2023-05-20T07:08:27.449Z,99.90
2023-05-20T07:10:57.081Z,99.90
2023-05-20T07:13:26.565Z,99.90
2023-05-20T07:15:56.813Z,99.90
2023-05-20T07:18:25.898Z,99.90
2023-05-20T07:20:57.913Z,99.90
2023-05-20T07:23:46.709Z,99.90
2023-05-20T07:26:15.283Z,99.90
2023-05-20T07:28:44.120Z,99.90
2023-05-20T07:31:14.656Z,99.90
2023-05-20T07:33:45.529Z,99.90
2023-05-20T07:36:14.917Z,99.90
2023-05-20T07:38:53.144Z,99.90
2023-05-20T07:41:31.980Z,99.90
2023-05-20T07:44:00.859Z,99.90
2023-05-20T07:46:30.887Z,99.90
2023-05-20T07:48:59.430Z,99.90
2023-05-20T07:51:28.208Z,99.90
2023-05-20T07:53:56.936Z,99.90
2023-05-20T07:56:25.831Z,99.90
2023-05-20T07:58:55.668Z,99.90
2023-05-20T08:01:26.222Z,99.90
2023-05-20T08:03:56.650Z,99.90
2023-05-20T08:06:29.562Z,99.90
2023-05-20T08:08:59.318Z,99.90
2023-05-20T08:11:33.071Z,99.90
2023-05-20T08:14:03.126Z,99.90
2023-05-20T08:16:38.390Z,99.90
2023-05-20T08:19:08.591Z,99.90
2023-05-20T08:21:37.462Z,99.90
2023-05-20T08:24:07.141Z,99.50
2023-05-20T08:26:37.007Z,98.30
2023-05-20T08:29:06.132Z,97.20
2023-05-20T08:31:35.457Z,96.10
2023-05-20T08:34:04.629Z,95.20
2023-05-20T08:36:34.761Z,94.50
2023-05-20T08:39:04.391Z,94.00
2023-05-20T08:41:33.351Z,93.70
2023-05-20T08:44:03.203Z,93.70
2023-05-20T08:46:33.371Z,93.80
2023-05-20T08:49:02.449Z,93.80
2023-05-20T08:51:32.989Z,93.90
2023-05-20T08:54:03.572Z,94.10
2023-05-20T08:56:34.024Z,93.70
2023-05-20T08:59:02.578Z,93.70
2023-05-20T09:01:31.227Z,93.90
2023-05-20T09:03:59.802Z,94.10
2023-05-20T09:06:28.396Z,94.20
2023-05-20T09:08:56.993Z,94.30
2023-05-20T09:11:27.010Z,94.40
2023-05-20T09:13:56.203Z,94.20
2023-05-20T09:16:24.876Z,94.30
2023-05-20T09:18:57.102Z,94.40
2023-05-20T09:21:28.127Z,94.50
2023-05-20T09:23:59.206Z,94.40
2023-05-20T09:26:30.632Z,94.20
2023-05-20T09:28:59.448Z,93.60
2023-05-20T09:31:29.334Z,93.10
2023-05-20T09:33:58.458Z,92.70
2023-05-20T09:36:30.086Z,92.30
2023-05-20T09:39:05.122Z,92.10
2023-05-20T09:41:39.693Z,91.90
2023-05-20T09:44:09.032Z,91.60
2023-05-20T09:46:39.428Z,91.30
2023-05-20T09:49:08.310Z,90.90
2023-05-20T09:51:36.954Z,90.80
2023-05-20T09:54:08.402Z,90.50
2023-05-20T09:56:39.114Z,90.20
2023-05-20T09:59:07.699Z,89.90
2023-05-20T10:01:36.516Z,89.70
2023-05-20T10:04:08.090Z,89.50
2023-05-20T10:07:11.811Z,89.50
2023-05-20T10:09:55.152Z,89.70
2023-05-20T10:12:34.598Z,90.00
2023-05-20T10:15:13.638Z,89.70
2023-05-20T10:17:51.652Z,88.90
2023-05-20T10:20:20.357Z,88.20
2023-05-20T10:22:58.079Z,88.50
2023-05-20T10:25:28.716Z,88.50
2023-05-20T10:28:10.156Z,89.00
2023-05-20T10:30:39.861Z,88.50
2023-05-20T10:33:10.181Z,87.60
2023-05-20T10:35:49.132Z,87.40
2023-05-20T10:38:17.679Z,87.40
2023-05-20T10:40:46.276Z,87.60
2023-05-20T10:43:18.660Z,87.50
2023-05-20T10:45:51.702Z,87.20
2023-05-20T10:48:26.345Z,86.40
2023-05-20T10:50:59.737Z,86.50
2023-05-20T10:53:33.541Z,86.80
2023-05-20T10:56:03.786Z,87.10
2023-05-20T10:58:40.387Z,87.30
2023-05-20T11:01:09.143Z,86.70
2023-05-20T11:03:38.370Z,85.90
2023-05-20T11:06:14.032Z,85.30
2023-05-20T11:08:44.659Z,84.70
2023-05-20T11:11:14.897Z,83.90
2023-05-20T11:13:45.002Z,83.80
2023-05-20T11:16:13.958Z,83.60
2023-05-20T11:18:42.570Z,83.50
2023-05-20T11:21:11.703Z,83.10
2023-05-20T11:23:40.866Z,83.20
2023-05-20T11:26:09.662Z,83.00
2023-05-20T11:28:39.078Z,83.00
2023-05-20T11:31:09.436Z,83.30
2023-05-20T11:33:43.063Z,83.20
2023-05-20T11:36:26.419Z,82.80
2023-05-20T11:38:58.208Z,82.20
2023-05-20T11:41:27.382Z,82.10
2023-05-20T11:43:59.366Z,82.20
2023-05-20T11:46:29.789Z,82.30
2023-05-20T11:48:59.000Z,82.30
2023-05-20T11:51:29.077Z,82.40
2023-05-20T11:54:01.707Z,82.20
2023-05-20T11:56:31.150Z,81.90
2023-05-20T11:59:01.193Z,81.70
2023-05-20T12:01:34.050Z,81.40
2023-05-20T12:04:02.935Z,81.50
2023-05-20T12:06:31.923Z,81.30
2023-05-20T12:09:03.373Z,80.80
2023-05-20T12:11:32.325Z,80.50
2023-05-20T12:14:01.015Z,80.50
2023-05-20T12:16:32.520Z,80.20
2023-05-20T12:19:01.361Z,79.20
2023-05-20T12:21:31.266Z,79.10
2023-05-20T12:24:01.083Z,79.80
2023-05-20T12:26:31.210Z,80.10
2023-05-20T12:28:59.840Z,80.10
2023-05-20T12:31:28.447Z,80.10
2023-05-20T12:33:58.380Z,78.80
2023-05-20T12:36:27.810Z,78.70
2023-05-20T12:38:56.672Z,78.60
2023-05-20T12:41:25.985Z,78.80
2023-05-20T12:43:55.021Z,78.70
2023-05-20T12:46:23.824Z,78.20
2023-05-20T12:48:52.444Z,77.80
2023-05-20T12:51:22.385Z,77.70
2023-05-20T12:53:51.057Z,77.80
2023-05-20T12:56:19.996Z,77.60
2023-05-20T12:58:48.567Z,77.60
2023-05-20T13:01:17.201Z,77.30
2023-05-20T13:03:45.937Z,77.00
2023-05-20T13:06:14.572Z,76.80
2023-05-20T13:08:45.382Z,76.90
2023-05-20T13:11:14.110Z,77.00
2023-05-20T13:13:43.006Z,77.30
2023-05-20T13:16:12.027Z,77.40
2023-05-20T13:18:40.627Z,77.60
2023-05-20T13:21:09.368Z,77.60
2023-05-20T13:23:38.447Z,78.40
2023-05-20T13:26:09.077Z,77.90
2023-05-20T13:28:37.704Z,78.20
2023-05-20T13:31:07.702Z,78.10
2023-05-20T13:33:36.836Z,78.00
2023-05-20T13:36:05.929Z,78.00
2023-05-20T13:38:35.306Z,77.90
2023-05-20T13:41:05.942Z,77.70
2023-05-20T13:43:36.119Z,77.70
2023-05-20T13:46:04.922Z,77.70
2023-05-20T13:48:34.112Z,77.70
2023-05-20T13:51:02.926Z,77.60
2023-05-20T13:53:31.532Z,77.60
2023-05-20T13:56:00.281Z,77.50
2023-05-20T13:58:28.850Z,77.60
2023-05-20T14:01:00.083Z,77.60
2023-05-20T14:03:28.712Z,77.60
2023-05-20T14:05:57.440Z,77.60
2023-05-20T14:08:26.100Z,77.70
2023-05-20T14:10:55.704Z,77.80
2023-05-20T14:13:24.394Z,77.70
2023-05-20T14:15:54.784Z,77.80
2023-05-20T14:18:24.898Z,77.80
2023-05-20T14:20:53.499Z,77.70
2023-05-20T14:23:22.592Z,77.80
2023-05-20T14:25:51.256Z,77.90
2023-05-20T14:28:19.837Z,77.90
2023-05-20T14:30:48.463Z,77.90
2023-05-20T14:33:17.044Z,77.90
2023-05-20T14:35:47.095Z,77.80
2023-05-20T14:38:15.724Z,77.80
2023-05-20T14:40:44.314Z,77.60
2023-05-20T14:43:12.885Z,77.50
2023-05-20T14:45:41.519Z,77.50
2023-05-20T14:48:10.824Z,77.30
2023-05-20T14:50:39.508Z,77.50
2023-05-20T14:53:09.488Z,77.60
2023-05-20T14:55:38.050Z,77.80
2023-05-20T14:58:06.608Z,77.60
2023-05-20T15:00:35.790Z,77.70
2023-05-20T15:03:04.748Z,77.40
2023-05-20T15:05:33.484Z,77.00
2023-05-20T15:08:02.086Z,76.90
2023-05-20T15:10:32.036Z,76.60
2023-05-20T15:13:00.798Z,76.50
2023-05-20T15:15:29.445Z,76.50
2023-05-20T15:17:58.069Z,76.90
2023-05-20T15:20:26.684Z,77.00
2023-05-20T15:22:55.214Z,77.10
2023-05-20T15:25:23.800Z,77.10
2023-05-20T15:27:53.729Z,77.00
2023-05-20T15:30:23.328Z,77.00
2023-05-20T15:32:51.997Z,76.90
2023-05-20T15:35:20.752Z,76.80
2023-05-20T15:37:49.336Z,76.70
2023-05-20T15:40:18.220Z,76.70
2023-05-20T15:42:47.427Z,76.70
2023-05-20T15:45:17.553Z,76.60
2023-05-20T15:47:46.190Z,76.70
2023-05-20T15:50:14.755Z,76.70
2023-05-20T15:52:43.441Z,76.90
2023-05-20T15:55:12.062Z,76.70
2023-05-20T15:57:40.687Z,76.90
2023-05-20T16:00:10.626Z,76.80
2023-05-20T16:02:42.819Z,76.80
2023-05-20T16:05:12.037Z,76.80
2023-05-20T16:07:40.835Z,76.70
2023-05-20T16:10:11.409Z,76.80
2023-05-20T16:12:40.716Z,76.80
2023-05-20T16:15:10.709Z,76.80
2023-05-20T16:17:40.919Z,76.70
2023-05-20T16:20:11.043Z,76.80
2023-05-20T16:22:39.739Z,76.80
2023-05-20T16:25:10.933Z,76.80
2023-05-20T16:27:39.514Z,76.80
2023-05-20T16:30:09.581Z,77.40
2023-05-20T16:32:38.168Z,76.70
2023-05-20T16:35:09.737Z,76.70
2023-05-20T16:37:39.371Z,76.90
2023-05-20T16:40:09.761Z,76.90
2023-05-20T16:42:39.532Z,77.00
2023-05-20T16:45:09.389Z,76.90
2023-05-20T16:47:38.327Z,76.90
2023-05-20T16:50:09.971Z,76.90
2023-05-20T16:52:38.819Z,77.00
2023-05-20T16:55:08.502Z,76.90
2023-05-20T16:57:37.253Z,77.10
2023-05-20T17:00:09.008Z,77.10
2023-05-20T17:02:37.653Z,77.10
2023-05-20T17:05:08.616Z,77.10
2023-05-20T17:07:38.257Z,77.20
2023-05-20T17:10:07.717Z,77.00
2023-05-20T17:12:36.346Z,77.20
2023-05-20T17:15:06.147Z,77.00
2023-05-20T17:17:34.803Z,77.10
2023-05-20T17:20:03.911Z,77.10
2023-05-20T17:22:33.804Z,77.10
2023-05-20T17:25:02.462Z,77.10
2023-05-20T17:27:31.211Z,77.20
2023-05-20T17:29:59.789Z,77.20
2023-05-20T17:32:28.383Z,77.20
2023-05-20T17:34:57.060Z,77.30
2023-05-20T17:37:26.114Z,77.20
2023-05-20T17:39:56.150Z,77.40
2023-05-20T17:42:24.921Z,77.40
2023-05-20T17:44:53.514Z,77.30
2023-05-20T17:47:22.092Z,77.40
2023-05-20T17:49:50.795Z,77.50
2023-05-20T17:52:19.388Z,77.60
2023-05-20T17:54:47.995Z,77.40
2023-05-20T17:57:18.922Z,77.40
2023-05-20T17:59:47.481Z,77.40
2023-05-20T18:02:16.085Z,77.40
2023-05-20T18:04:44.650Z,77.40
2023-05-20T18:07:13.842Z,77.50
2023-05-20T18:09:42.412Z,77.50
2023-05-20T18:12:11.006Z,77.40
2023-05-20T18:14:40.994Z,77.20
2023-05-20T18:17:09.645Z,77.30
2023-05-20T18:19:38.258Z,77.30
2023-05-20T18:22:07.313Z,77.40
2023-05-20T18:24:35.984Z,77.40
2023-05-20T18:27:04.656Z,77.50
2023-05-20T18:29:33.385Z,77.40
2023-05-20T18:32:03.391Z,77.50
2023-05-20T18:34:33.078Z,77.50
2023-05-20T18:37:02.134Z,77.50
2023-05-20T18:39:30.681Z,77.70
2023-05-20T18:41:59.248Z,77.60
2023-05-20T18:44:27.842Z,77.50
2023-05-20T18:46:56.489Z,77.60
2023-05-20T18:49:26.497Z,77.70
2023-05-20T18:51:55.092Z,77.70
2023-05-20T18:54:23.663Z,77.70
2023-05-20T18:56:52.562Z,76.80
2023-05-20T18:59:23.265Z,77.70
2023-05-20T19:01:53.170Z,77.80
2023-05-20T19:04:21.735Z,77.80
2023-05-20T19:06:51.866Z,77.90
2023-05-20T19:09:20.601Z,78.00
2023-05-20T19:11:51.194Z,78.10
2023-05-20T19:14:19.757Z,78.20
2023-05-20T19:16:48.613Z,78.80
2023-05-20T19:19:17.197Z,78.30
2023-05-20T19:21:46.138Z,78.20
2023-05-20T19:24:17.681Z,78.30
2023-05-20T19:26:46.626Z,78.30
2023-05-20T19:29:15.416Z,78.40
2023-05-20T19:31:44.018Z,78.40
2023-05-20T19:34:12.561Z,78.40
2023-05-20T19:36:42.816Z,78.40
2023-05-20T19:39:11.665Z,78.50
2023-05-20T19:41:41.920Z,78.40
2023-05-20T19:44:10.934Z,78.40
2023-05-20T19:46:39.500Z,78.30
2023-05-20T19:49:08.180Z,78.50
2023-05-20T19:51:36.864Z,78.40
2023-05-20T19:54:05.499Z,78.40
2023-05-20T19:56:34.046Z,78.40
2023-05-20T19:59:03.989Z,78.40
2023-05-20T20:01:32.810Z,78.40
2023-05-20T20:04:01.491Z,78.50
2023-05-20T20:06:30.054Z,78.40
2023-05-20T20:08:58.953Z,78.50
2023-05-20T20:11:27.543Z,78.50
2023-05-20T20:13:56.047Z,78.50
2023-05-20T20:16:26.890Z,78.50
2023-05-20T20:18:55.832Z,78.60
2023-05-20T20:21:25.693Z,78.60
2023-05-20T20:23:54.402Z,78.70
2023-05-20T20:26:25.854Z,79.50
2023-05-20T20:28:54.784Z,79.10
2023-05-20T20:31:23.438Z,78.90
2023-05-20T20:33:53.489Z,79.80
2023-05-20T20:36:22.081Z,79.10
2023-05-20T20:38:50.721Z,79.20
2023-05-20T20:41:20.896Z,79.40
2023-05-20T20:43:49.606Z,79.40
2023-05-20T20:46:18.421Z,79.60
2023-05-20T20:48:47.104Z,79.60
2023-05-20T20:51:17.892Z,79.70
2023-05-20T20:53:48.152Z,79.80
2023-05-20T20:56:17.465Z,79.90
2023-05-20T20:58:46.332Z,79.90
2023-05-20T21:01:17.454Z,80.00
2023-05-20T21:03:48.383Z,80.10
2023-05-20T21:06:18.464Z,80.20
2023-05-20T21:08:47.891Z,80.30
2023-05-20T21:11:17.774Z,80.40
2023-05-20T21:13:46.423Z,80.40
2023-05-20T21:16:15.301Z,80.50
2023-05-20T21:18:43.960Z,80.60
2023-05-20T21:21:14.824Z,80.70
2023-05-20T21:23:44.952Z,80.70
2023-05-20T21:26:13.722Z,80.80
2023-05-20T21:28:42.281Z,80.90
2023-05-20T21:31:10.923Z,80.90
2023-05-20T21:33:39.488Z,81.00
2023-05-20T21:36:08.184Z,81.80
2023-05-20T21:38:36.927Z,81.20
2023-05-20T21:41:06.851Z,81.30
2023-05-20T21:43:37.353Z,81.30
2023-05-20T21:46:07.810Z,81.40
2023-05-20T21:48:36.440Z,81.40
2023-05-20T21:51:05.274Z,81.50
2023-05-20T21:53:33.893Z,81.60
2023-05-20T21:56:02.488Z,81.60
2023-05-20T21:58:33.201Z,81.70
2023-05-20T22:01:02.190Z,81.90
2023-05-20T22:03:32.929Z,82.60
2023-05-20T22:06:03.356Z,81.80
2023-05-20T22:08:33.800Z,82.00
2023-05-20T22:11:05.483Z,82.20
2023-05-20T22:13:41.306Z,82.00
2023-05-20T22:16:11.154Z,82.10
2023-05-20T22:18:39.831Z,82.10
2023-05-20T22:21:08.751Z,82.10
2023-05-20T22:23:37.320Z,82.20
2023-05-20T22:26:06.344Z,82.20
2023-05-20T22:28:36.379Z,82.30
2023-05-20T22:31:05.185Z,82.40
2023-05-20T22:33:33.782Z,82.60
2023-05-20T22:36:02.299Z,82.60
2023-05-20T22:38:30.863Z,82.70
2023-05-20T22:40:59.467Z,82.70
2023-05-20T22:43:28.003Z,82.90
2023-05-20T22:45:58.037Z,83.00
2023-05-20T22:48:26.654Z,83.00
2023-05-20T22:50:56.070Z,83.20
2023-05-20T22:53:24.625Z,83.20
2023-05-20T22:55:53.214Z,83.40
2023-05-20T22:58:22.617Z,83.40
2023-05-20T23:00:51.298Z,83.70
2023-05-20T23:03:21.391Z,83.70
2023-05-20T23:05:49.926Z,83.80
2023-05-20T23:08:18.505Z,84.00
2023-05-20T23:10:47.107Z,84.00
2023-05-20T23:13:15.968Z,84.20
2023-05-20T23:15:48.110Z,84.20
2023-05-20T23:18:16.711Z,84.20
2023-05-20T23:20:47.626Z,84.40
2023-05-20T23:23:16.534Z,84.50
2023-05-20T23:25:46.643Z,84.50
2023-05-20T23:28:15.282Z,84.60
2023-05-20T23:30:43.842Z,84.70
2023-05-20T23:33:12.948Z,84.90
2023-05-20T23:35:44.047Z,84.90
2023-05-20T23:38:14.060Z,85.00
2023-05-20T23:40:42.708Z,85.10
2023-05-20T23:43:11.291Z,85.20
2023-05-20T23:45:39.863Z,85.20
2023-05-20T23:48:11.183Z,85.30
2023-05-20T23:50:39.949Z,85.70
2023-05-20T23:53:08.524Z,85.40
2023-05-20T23:55:38.741Z,85.60
2023-05-20T23:58:07.448Z,85.70
